METAR Data
IDs: Format: Raw Decoded Include TAF

Data at: 1315 UTC 07 Jul 2020

KRZR 071255Z AUTO 00000KT 9SM FEW070 25/25 A3002 RMK A01
KRZR 071235Z AUTO 00000KT 8SM BKN070 24/24 A3002 RMK A01
KRZR 071215Z AUTO 00000KT 7SM FEW065 23/23 A3001 RMK A01
KRZR 071155Z AUTO 00000KT 7SM BKN065 23/23 A3001 RMK A01
KRZR 071135Z AUTO 00000KT 7SM FEW060 23/23 A3001 RMK A01
KRZR 071115Z AUTO 00000KT 8SM FEW060 23/23 A3000 RMK A01
KRZR 071055Z AUTO 00000KT 9SM FEW060 22/22 A3000 RMK A01
KRZR 071035Z AUTO 00000KT 10SM BKN055 22/22 A3000 RMK A01
KRZR 071015Z AUTO 00000KT 10SM BKN050 23/23 A3000 RMK A01
KRZR 070955Z AUTO 00000KT 10SM FEW049 23/23 A3000 RMK A01
KRZR 070935Z AUTO 00000KT 10SM CLR 23/23 A3000 RMK A01
KRZR 070915Z AUTO 00000KT 10SM SCT085 SCT100 23/23 A3000 RMK A01
KRZR 070855Z AUTO 00000KT 10SM OVC080 23/23 A2999 RMK A01
KRZR 070835Z AUTO 00000KT 10SM SCT080 23/23 A2999 RMK A01
KRZR 070815Z AUTO 00000KT 10SM CLR 23/23 A2999 RMK A01
KRZR 070755Z AUTO 00000KT 10SM CLR 22/22 A2999 RMK A01
KRZR 070735Z AUTO 00000KT 10SM CLR 23/23 A2999 RMK A01
KRZR 070715Z AUTO 00000KT 10SM CLR 23/23 A3000 RMK A01
KRZR 070655Z AUTO 00000KT 10SM FEW039 FEW049 SCT060 23/23 A3000 RMK A01
KRZR 070635Z AUTO 00000KT 10SM FEW037 SCT055 SCT075 23/23 A3001 RMK A01
KRZR 070615Z AUTO 00000KT 10SM FEW100 FEW120 23/23 A3001 RMK A01
KRZR 070555Z AUTO 00000KT 10SM FEW044 FEW075 FEW120 24/24 A3001 RMK A01
KRZR 070535Z AUTO 00000KT 10SM BKN070 BKN120 24/24 A3002 RMK A01
KRZR 070515Z AUTO 23003KT 10SM OVC070 24/24 A3003 RMK A01
KRZR 070455Z AUTO 22004KT 10SM FEW041 OVC070 24/24 A3004 RMK A01
KRZR 070435Z AUTO 21003KT 10SM OVC070 25/24 A3004 RMK A01
KRZR 070415Z AUTO 00000KT 10SM BKN070 BKN110 25/24 A3003 RMK A01
KRZR 070355Z AUTO 00000KT 10SM FEW043 SCT075 25/24 A3003 RMK A01
KRZR 070335Z AUTO 00000KT 10SM FEW038 FEW075 SCT090 25/24 A3003 RMK A01
KRZR 070315Z AUTO 00000KT 10SM SCT080 SCT100 SCT120 25/24 A3002 RMK A01
KRZR 070255Z AUTO 00000KT 10SM BKN095 BKN120 26/24 A3001 RMK A01
KRZR 070235Z AUTO 13004KT 10SM BKN085 OVC100 27/23 A3001 RMK A01
KRZR 070215Z AUTO 00000KT 10SM OVC080 27/23 A3001 RMK A01
KRZR 070155Z AUTO 00000KT 10SM OVC075 27/23 A3000 RMK A01
KRZR 070135Z AUTO 00000KT 10SM FEW060 OVC075 28/23 A3000 RMK A01
KRZR 070115Z AUTO 00000KT 10SM BKN060 OVC075 26/26 A2999 RMK A01
KRZR 070055Z AUTO 00000KT 10SM OVC060 27/25 A2998 RMK A01
KRZR 070035Z AUTO 00000KT 10SM FEW055 BKN070 BKN080 28/24 A2998 RMK A01
KRZR 070015Z AUTO 00000KT 10SM SCT055 SCT070 29/24 A2997 RMK A01
KRZR 062355Z AUTO 00000KT 10SM FEW050 29/24 A2997 RMK A01
KRZR 062335Z AUTO 19003KT 9SM FEW050 29/24 A2996 RMK A01
KRZR 062315Z AUTO 00000KT 9SM FEW055 SCT065 29/24 A2996 RMK A01
KRZR 062255Z AUTO VRB04KT 9SM SCT055 BKN070 BKN080 29/23 A2996 RMK A01
KRZR 062235Z AUTO 00000KT 9SM FEW075 28/24 A2996 RMK A01
KRZR 062215Z AUTO 00000KT 9SM CLR 29/24 A2996 RMK A01
KRZR 062155Z AUTO 00000KT 10SM FEW065 29/24 A2996 RMK A01
KRZR 062135Z AUTO 00000KT 10SM FEW065 30/22 A2996 RMK A01
KRZR 062115Z AUTO 00000KT 10SM CLR 31/21 A2996 RMK A01
KRZR 062055Z AUTO 04005KT 10SM FEW055 31/21 A2997 RMK A01
KRZR 062035Z AUTO 08003KT 10SM FEW055 31/20 A2997 RMK A01
KRZR 062015Z AUTO 11004KT 9SM FEW060 SCT070 32/20 A2997 RMK A01
KRZR 061955Z AUTO 00000KT 9SM FEW050 SCT060 SCT075 31/20 A2998 RMK A01
KRZR 061935Z AUTO 00000KT 10SM FEW050 SCT060 SCT075 31/20 A2999 RMK A01
KRZR 061915Z AUTO 00000KT 10SM FEW060 FEW075 31/20 A3000 RMK A01
KRZR 061855Z AUTO 00000KT 10SM SCT050 SCT060 30/21 A3000 RMK A01
KRZR 061835Z AUTO 00000KT 9SM FEW050 SCT060 SCT070 30/20 A3001 RMK A01
KRZR 061815Z AUTO 05004KT 10SM FEW047 SCT055 SCT070 30/21 A3001 RMK A01
KRZR 061755Z AUTO VRB04KT 9SM SCT049 BKN060 BKN070 30/21 A3002 RMK A01
KRZR 061735Z AUTO 00000KT 9SM BKN048 BKN055 OVC065 30/21 A3003 RMK A01
KRZR 061715Z AUTO VRB03KT 9SM SCT048 BKN055 30/20 A3003 RMK A01
KRZR 061655Z AUTO 00000KT 9SM FEW050 30/20 A3004 RMK A01
KRZR 061635Z AUTO 19005KT 9SM FEW047 30/20 A3004 RMK A01
KRZR 061615Z AUTO 00000KT 10SM SCT046 SCT055 29/20 A3005 RMK A01
KRZR 061555Z AUTO 13004KT 9SM FEW043 29/20 A3005 RMK A01
KRZR 061535Z AUTO VRB06KT 9SM CLR 30/21 A3005 RMK A01
KRZR 061515Z AUTO VRB05G11KT 9SM FEW039 29/21 A3005 RMK A01
KRZR 061455Z AUTO 00000KT 9SM CLR 29/22 A3005 RMK A01
KRZR 061435Z AUTO 00000KT 9SM CLR 28/23 A3005 RMK A01
KRZR 061415Z AUTO 00000KT 9SM CLR 28/23 A3005 RMK A01
KRZR 061355Z AUTO 00000KT 7SM CLR 27/25 A3005 RMK A01
KRZR 061335Z AUTO 00000KT 7SM CLR 26/24 A3004 RMK A01
KRZR 061315Z AUTO 00000KT 4SM BR CLR 25/24 A3004 RMK A01
KRZR 061255Z AUTO 00000KT 3SM BR CLR 24/24 A3003 RMK A01
KRZR 061235Z AUTO 00000KT 1 1/2SM BR CLR 23/23 A3003 RMK A01
KRZR 061215Z AUTO 00000KT 1 3/4SM BR CLR 22/22 A3003 RMK A01
KRZR 061155Z AUTO 00000KT 2SM BR CLR 22/22 A3003 RMK A01
KRZR 061135Z AUTO 00000KT 2SM BR CLR 21/21 A3002 RMK A01
KRZR 061115Z AUTO 00000KT 1 1/2SM BR CLR 21/21 A3002 RMK A01
KRZR 061055Z AUTO 00000KT 2SM BR FEW002 21/21 A3002 RMK A01
KRZR 061035Z AUTO 00000KT 3SM BR CLR 20/20 A3001 RMK A01
KRZR 061015Z AUTO 00000KT 4SM BR CLR 21/21 A3000 RMK A01
KRZR 060955Z AUTO 00000KT 2 1/2SM BR CLR 20/20 A3000 RMK A01 VIS 1 1/2V4
KRZR 060935Z AUTO 00000KT 6SM BR CLR 21/21 A2999 RMK A01
KRZR 060915Z AUTO 00000KT 4SM BR CLR 21/21 A2998 RMK A01
KRZR 060855Z AUTO 00000KT 5SM BR FEW004 21/21 A2998 RMK A01
KRZR 060835Z AUTO 00000KT 2SM BR CLR 21/21 A2996 RMK A01
KRZR 060815Z AUTO 00000KT 2 1/2SM BR CLR 21/21 A2996 RMK A01
KRZR 060755Z AUTO 00000KT 3SM BR CLR 21/21 A2996 RMK A01
KRZR 060735Z AUTO 00000KT 4SM BR CLR 22/22 A2996 RMK A01
KRZR 060715Z AUTO 00000KT 3SM BR CLR 21/21 A2996 RMK A01
KRZR 060655Z AUTO 00000KT 4SM BR CLR 22/22 A2996 RMK A01
KRZR 060635Z AUTO 00000KT 3SM BR CLR 22/22 A2997 RMK A01
KRZR 060615Z AUTO 00000KT 4SM BR CLR 22/22 A2998 RMK A01
KRZR 060555Z AUTO 00000KT 5SM BR CLR 22/22 A2997 RMK A01
KRZR 060535Z AUTO 00000KT 5SM BR CLR 22/22 A2998 RMK A01
KRZR 060515Z AUTO 00000KT 5SM BR CLR 22/22 A2998 RMK A01
KRZR 060455Z AUTO 00000KT 6SM BR CLR 22/22 A2998 RMK A01
KRZR 060435Z AUTO 00000KT 6SM BR CLR 23/23 A2998 RMK A01
KRZR 060415Z AUTO 00000KT 6SM BR CLR 23/23 A2998 RMK A01
KRZR 060355Z AUTO 00000KT 7SM CLR 23/23 A2998 RMK A01
KRZR 060335Z AUTO 00000KT 7SM CLR 23/23 A2998 RMK A01
KRZR 060315Z AUTO 00000KT 8SM FEW120 23/23 A2998 RMK A01
KRZR 060255Z AUTO 00000KT 9SM SCT120 23/23 A2998 RMK A01
KRZR 060235Z AUTO 00000KT 10SM FEW120 23/23 A2999 RMK A01
KRZR 060215Z AUTO 00000KT 9SM CLR 23/23 A2998 RMK A01
KRZR 060155Z AUTO 00000KT 10SM CLR 23/23 A2997 RMK A01
KRZR 060135Z AUTO 00000KT 9SM SCT110 23/23 A2998 RMK A01